sensor_id;sensor_type;location;lat;lon;timestamp;pressure;altitude;pressure_sealevel;temperature;humidity
60089;BME280;45961;53.574;55.878;2022-10-16T04:44:41;100969.88;;;6.53;99.56
60089;BME280;45961;53.574;55.878;2022-10-16T04:45:42;100984.94;;;6.66;99.79
60089;BME280;45961;53.574;55.878;2022-10-16T04:46:43;100988.56;;;6.71;99.55
60089;BME280;45961;53.574;55.878;2022-10-16T04:47:44;100982.78;;;6.77;99.54
60089;BME280;45961;53.574;55.878;2022-10-16T04:48:45;100986.44;;;6.83;99.33
60089;BME280;45961;53.574;55.878;2022-10-16T04:49:48;100980.69;;;6.90;98.83
60089;BME280;45961;53.574;55.878;2022-10-16T04:50:49;100985.03;;;6.91;98.83
60089;BME280;45961;53.574;55.878;2022-10-16T04:51:53;100986.84;;;6.94;98.45
60089;BME280;45961;53.574;55.878;2022-10-16T04:52:54;100974.63;;;6.88;98.08
60089;BME280;45961;53.574;55.878;2022-10-16T04:53:55;100985.41;;;6.78;97.71
60089;BME280;45961;53.574;55.878;2022-10-16T04:54:57;100990.28;;;6.95;97.70
60089;BME280;45961;53.574;55.878;2022-10-16T04:56:01;100995.94;;;7.08;97.73
60089;BME280;45961;53.574;55.878;2022-10-16T04:57:02;100995.38;;;7.17;97.44
60089;BME280;45961;53.574;55.878;2022-10-16T04:58:05;100996.38;;;7.21;97.16
60089;BME280;45961;53.574;55.878;2022-10-16T04:59:09;100994.16;;;7.31;96.97
60089;BME280;45961;53.574;55.878;2022-10-16T05:00:10;100974.03;;;7.20;96.57
60089;BME280;45961;53.574;55.878;2022-10-16T05:01:11;100997.06;;;7.40;96.11
60089;BME280;45961;53.574;55.878;2022-10-16T05:02:12;101004.56;;;7.34;95.56
60089;BME280;45961;53.574;55.878;2022-10-16T05:03:13;101002.69;;;7.30;94.86
60089;BME280;45961;53.574;55.878;2022-10-16T05:04:14;101007.13;;;7.34;94.67
60089;BME280;45961;53.574;55.878;2022-10-16T05:05:18;101002.94;;;7.36;94.25
60089;BME280;45961;53.574;55.878;2022-10-16T05:06:22;100993.44;;;7.35;94.00
60089;BME280;45961;53.574;55.878;2022-10-16T05:07:23;101001.66;;;7.49;93.86
60089;BME280;45961;53.574;55.878;2022-10-16T05:08:24;100992.56;;;7.35;93.38
60089;BME280;45961;53.574;55.878;2022-10-16T05:09:25;101005.84;;;7.47;93.19
60089;BME280;45961;53.574;55.878;2022-10-16T05:10:26;100971.16;;;7.36;93.11
60089;BME280;45961;53.574;55.878;2022-10-16T05:11:27;101004.63;;;7.61;92.79
60089;BME280;45961;53.574;55.878;2022-10-16T05:12:29;101007.34;;;7.66;92.44
60089;BME280;45961;53.574;55.878;2022-10-16T05:13:30;101002.22;;;7.66;92.33
60089;BME280;45961;53.574;55.878;2022-10-16T05:14:33;101006.22;;;7.58;91.83
60089;BME280;45961;53.574;55.878;2022-10-16T05:15:34;100986.22;;;7.51;91.73
60089;BME280;45961;53.574;55.878;2022-10-16T05:16:36;100994.06;;;7.54;91.55
60089;BME280;45961;53.574;55.878;2022-10-16T05:17:39;101006.59;;;7.69;91.56
60089;BME280;45961;53.574;55.878;2022-10-16T05:18:43;101007.56;;;7.72;91.35
60089;BME280;45961;53.574;55.878;2022-10-16T05:19:44;101015.47;;;7.77;91.18
60089;BME280;45961;53.574;55.878;2022-10-16T05:20:45;101008.53;;;7.76;91.02
60089;BME280;45961;53.574;55.878;2022-10-16T05:21:46;101007.97;;;7.84;91.06
60089;BME280;45961;53.574;55.878;2022-10-16T05:22:47;101008.78;;;7.83;90.77
60089;BME280;45961;53.574;55.878;2022-10-16T05:23:48;101012.97;;;7.80;90.52
60089;BME280;45961;53.574;55.878;2022-10-16T05:24:49;101009.25;;;7.72;90.50
60089;BME280;45961;53.574;55.878;2022-10-16T05:25:55;101016.44;;;7.80;90.55
60089;BME280;45961;53.574;55.878;2022-10-16T05:26:58;101012.81;;;7.75;90.21
60089;BME280;45961;53.574;55.878;2022-10-16T05:27:59;101001.59;;;7.73;90.34
60089;BME280;45961;53.574;55.878;2022-10-16T05:29:00;101019.31;;;7.89;90.28
60089;BME280;45961;53.574;55.878;2022-10-16T05:30:01;101003.72;;;7.86;89.80
60089;BME280;45961;53.574;55.878;2022-10-16T05:31:08;101016.91;;;7.96;89.40
60089;BME280;45961;53.574;55.878;2022-10-16T05:32:09;101011.56;;;7.89;88.64
60089;BME280;45961;53.574;55.878;2022-10-16T05:33:10;101020.22;;;7.91;88.56
60089;BME280;45961;53.574;55.878;2022-10-16T05:34:13;101016.13;;;7.97;88.50
60089;BME280;45961;53.574;55.878;2022-10-16T05:35:14;101020.22;;;7.91;88.35
60089;BME280;45961;53.574;55.878;2022-10-16T05:36:35;101025.47;;;7.95;88.08
60089;BME280;45961;53.574;55.878;2022-10-16T05:37:36;101022.31;;;8.03;87.84
60089;BME280;45961;53.574;55.878;2022-10-16T05:38:37;101018.75;;;8.00;87.57
60089;BME280;45961;53.574;55.878;2022-10-16T05:39:39;101028.94;;;7.95;87.26
60089;BME280;45961;53.574;55.878;2022-10-16T05:40:39;101024.16;;;7.80;87.09
60089;BME280;45961;53.574;55.878;2022-10-16T05:41:40;101026.50;;;8.00;87.18
60089;BME280;45961;53.574;55.878;2022-10-16T05:42:44;101013.53;;;7.97;86.94
60089;BME280;45961;53.574;55.878;2022-10-16T05:43:46;101025.72;;;8.02;86.62
60089;BME280;45961;53.574;55.878;2022-10-16T05:44:47;101027.53;;;8.05;86.45
60089;BME280;45961;53.574;55.878;2022-10-16T05:45:58;101009.00;;;7.89;86.14
60089;BME280;45961;53.574;55.878;2022-10-16T05:46:59;101017.03;;;7.99;86.22
60089;BME280;45961;53.574;55.878;2022-10-16T05:48:04;101033.75;;;8.11;86.12
60089;BME280;45961;53.574;55.878;2022-10-16T05:49:04;101035.56;;;8.14;86.15
60089;BME280;45961;53.574;55.878;2022-10-16T05:50:06;101013.06;;;8.08;86.11
60089;BME280;45961;53.574;55.878;2022-10-16T05:51:10;101034.84;;;8.18;85.91
60089;BME280;45961;53.574;55.878;2022-10-16T05:52:11;101020.09;;;8.14;86.18
60089;BME280;45961;53.574;55.878;2022-10-16T05:53:12;101034.94;;;8.21;86.15
60089;BME280;45961;53.574;55.878;2022-10-16T05:54:13;101031.72;;;8.28;86.18
60089;BME280;45961;53.574;55.878;2022-10-16T05:55:14;101022.88;;;8.20;86.19
60089;BME280;45961;53.574;55.878;2022-10-16T05:56:16;101037.03;;;8.33;86.32
60089;BME280;45961;53.574;55.878;2022-10-16T05:57:19;101042.06;;;8.28;86.32
60089;BME280;45961;53.574;55.878;2022-10-16T05:58:21;101039.69;;;8.36;86.27
60089;BME280;45961;53.574;55.878;2022-10-16T05:59:22;101034.53;;;8.36;86.17
60089;BME280;45961;53.574;55.878;2022-10-16T06:00:23;101036.09;;;8.31;86.01
60089;BME280;45961;53.574;55.878;2022-10-16T06:01:24;101030.63;;;8.20;85.92
60089;BME280;45961;53.574;55.878;2022-10-16T06:02:25;101042.19;;;8.33;85.95
60089;BME280;45961;53.574;55.878;2022-10-16T06:03:26;101038.00;;;8.36;85.82
60089;BME280;45961;53.574;55.878;2022-10-16T06:04:30;101048.56;;;8.44;85.59
60089;BME280;45961;53.574;55.878;2022-10-16T06:05:31;101044.31;;;8.45;85.42
60089;BME280;45961;53.574;55.878;2022-10-16T06:06:32;101042.59;;;8.45;85.47
60089;BME280;45961;53.574;55.878;2022-10-16T06:07:35;101044.59;;;8.54;85.62
60089;BME280;45961;53.574;55.878;2022-10-16T06:08:36;101027.28;;;8.51;85.41
60089;BME280;45961;53.574;55.878;2022-10-16T06:09:37;101039.75;;;8.64;85.19
60089;BME280;45961;53.574;55.878;2022-10-16T06:10:41;101026.53;;;8.54;84.84
60089;BME280;45961;53.574;55.878;2022-10-16T06:11:42;101039.78;;;8.66;84.61
60089;BME280;45961;53.574;55.878;2022-10-16T06:12:43;101037.00;;;8.60;84.34
60089;BME280;45961;53.574;55.878;2022-10-16T06:13:51;101039.66;;;8.61;84.17
60089;BME280;45961;53.574;55.878;2022-10-16T06:14:52;101041.38;;;8.61;84.07
60089;BME280;45961;53.574;55.878;2022-10-16T06:15:56;101050.44;;;8.77;84.08
60089;BME280;45961;53.574;55.878;2022-10-16T06:17:00;101043.22;;;8.65;84.10
60089;BME280;45961;53.574;55.878;2022-10-16T06:18:01;101038.91;;;8.65;83.68
60089;BME280;45961;53.574;55.878;2022-10-16T06:19:04;101046.81;;;8.72;83.53
60089;BME280;45961;53.574;55.878;2022-10-16T06:20:07;101047.41;;;8.61;83.44
60089;BME280;45961;53.574;55.878;2022-10-16T06:21:16;101052.69;;;8.66;83.29
60089;BME280;45961;53.574;55.878;2022-10-16T06:22:18;101055.00;;;8.57;82.95
60089;BME280;45961;53.574;55.878;2022-10-16T06:23:19;101066.13;;;8.56;82.94
60089;BME280;45961;53.574;55.878;2022-10-16T06:24:20;101044.09;;;8.38;82.54
60089;BME280;45961;53.574;55.878;2022-10-16T06:25:23;101058.84;;;8.43;82.66
60089;BME280;45961;53.574;55.878;2022-10-16T06:26:28;101047.03;;;8.49;82.56
60089;BME280;45961;53.574;55.878;2022-10-16T06:27:30;101062.00;;;8.61;82.46
60089;BME280;45961;53.574;55.878;2022-10-16T06:28:31;101055.38;;;8.69;82.58
60089;BME280;45961;53.574;55.878;2022-10-16T06:29:31;101053.56;;;8.67;82.71
60089;BME280;45961;53.574;55.878;2022-10-16T06:30:33;101053.59;;;8.68;82.68
60089;BME280;45961;53.574;55.878;2022-10-16T06:31:34;101046.28;;;8.53;82.67
60089;BME280;45961;53.574;55.878;2022-10-16T06:32:35;101052.84;;;8.72;82.95
60089;BME280;45961;53.574;55.878;2022-10-16T06:33:38;101049.53;;;8.48;82.78
60089;BME280;45961;53.574;55.878;2022-10-16T06:34:39;101063.63;;;8.32;83.02
60089;BME280;45961;53.574;55.878;2022-10-16T06:35:41;101048.88;;;8.53;83.45
60089;BME280;45961;53.574;55.878;2022-10-16T06:36:42;101032.78;;;8.35;83.63
60089;BME280;45961;53.574;55.878;2022-10-16T06:37:44;101054.91;;;8.54;83.68
60089;BME280;45961;53.574;55.878;2022-10-16T06:38:44;101053.59;;;8.68;83.80
60089;BME280;45961;53.574;55.878;2022-10-16T06:39:46;101056.63;;;8.83;83.86
60089;BME280;45961;53.574;55.878;2022-10-16T06:40:47;101058.63;;;8.63;83.74
60089;BME280;45961;53.574;55.878;2022-10-16T06:41:49;101053.59;;;8.68;83.79
60089;BME280;45961;53.574;55.878;2022-10-16T06:42:50;101057.09;;;8.69;83.73
60089;BME280;45961;53.574;55.878;2022-10-16T06:43:52;101064.13;;;8.74;83.71
60089;BME280;45961;53.574;55.878;2022-10-16T06:44:53;101065.88;;;8.75;83.53
60089;BME280;45961;53.574;55.878;2022-10-16T06:45:56;101060.91;;;8.81;83.53
60089;BME280;45961;53.574;55.878;2022-10-16T06:47:00;101056.28;;;8.71;83.10
60089;BME280;45961;53.574;55.878;2022-10-16T06:48:01;101065.69;;;8.69;82.86
60089;BME280;45961;53.574;55.878;2022-10-16T06:49:02;101063.06;;;8.68;82.60
60089;BME280;45961;53.574;55.878;2022-10-16T06:50:04;101069.28;;;8.74;82.37
60089;BME280;45961;53.574;55.878;2022-10-16T06:51:10;101061.13;;;8.60;82.40
60089;BME280;45961;53.574;55.878;2022-10-16T06:52:12;101046.59;;;8.64;82.52
60089;BME280;45961;53.574;55.878;2022-10-16T06:53:33;101066.69;;;8.46;82.45
60089;BME280;45961;53.574;55.878;2022-10-16T06:54:34;101068.78;;;8.57;82.66
60089;BME280;45961;53.574;55.878;2022-10-16T06:55:35;101064.72;;;8.65;82.29
60089;BME280;45961;53.574;55.878;2022-10-16T06:56:36;101070.38;;;8.54;81.97
60089;BME280;45961;53.574;55.878;2022-10-16T06:57:38;101074.22;;;8.67;81.86
60089;BME280;45961;53.574;55.878;2022-10-16T06:58:39;101069.09;;;8.68;81.75
60089;BME280;45961;53.574;55.878;2022-10-16T06:59:44;101071.41;;;8.59;81.40
60089;BME280;45961;53.574;55.878;2022-10-16T07:00:45;101079.94;;;8.56;81.24
60089;BME280;45961;53.574;55.878;2022-10-16T07:01:48;101082.72;;;8.64;81.39
60089;BME280;45961;53.574;55.878;2022-10-16T07:02:49;101077.50;;;8.61;81.39
60089;BME280;45961;53.574;55.878;2022-10-16T07:03:52;101075.16;;;8.69;81.50
60089;BME280;45961;53.574;55.878;2022-10-16T07:04:53;101085.38;;;8.65;81.25
60089;BME280;45961;53.574;55.878;2022-10-16T07:05:54;101075.81;;;8.63;81.08
60089;BME280;45961;53.574;55.878;2022-10-16T07:06:56;101070.50;;;8.57;80.96
60089;BME280;45961;53.574;55.878;2022-10-16T07:07:57;101076.56;;;8.59;80.97
60089;BME280;45961;53.574;55.878;2022-10-16T07:09:01;101060.94;;;8.54;81.13
60089;BME280;45961;53.574;55.878;2022-10-16T07:10:05;101076.06;;;8.71;81.27
60089;BME280;45961;53.574;55.878;2022-10-16T07:11:08;101072.00;;;8.79;81.25
60089;BME280;45961;53.574;55.878;2022-10-16T07:12:09;101074.03;;;8.89;81.16
60089;BME280;45961;53.574;55.878;2022-10-16T07:13:10;101057.38;;;8.79;81.11
60089;BME280;45961;53.574;55.878;2022-10-16T07:14:19;101084.59;;;8.97;80.99
60089;BME280;45961;53.574;55.878;2022-10-16T07:15:25;101085.38;;;8.94;81.00
60089;BME280;45961;53.574;55.878;2022-10-16T07:16:28;101077.41;;;8.86;80.56
60089;BME280;45961;53.574;55.878;2022-10-16T07:17:29;101083.56;;;8.92;80.31
60089;BME280;45961;53.574;55.878;2022-10-16T07:18:33;101080.59;;;8.78;79.82
60089;BME280;45961;53.574;55.878;2022-10-16T07:19:37;101090.03;;;8.77;79.90
60089;BME280;45961;53.574;55.878;2022-10-16T07:20:38;101094.59;;;8.86;79.96
60089;BME280;45961;53.574;55.878;2022-10-16T07:21:39;101090.53;;;8.94;80.07
60089;BME280;45961;53.574;55.878;2022-10-16T07:22:40;101082.19;;;9.03;80.12
60089;BME280;45961;53.574;55.878;2022-10-16T07:23:42;101090.69;;;9.00;79.95
60089;BME280;45961;53.574;55.878;2022-10-16T07:24:46;101088.22;;;9.03;79.55
60089;BME280;45961;53.574;55.878;2022-10-16T07:25:53;101087.56;;;9.10;79.50
60089;BME280;45961;53.574;55.878;2022-10-16T07:26:54;101092.00;;;9.16;79.41
60089;BME280;45961;53.574;55.878;2022-10-16T07:27:55;101091.22;;;9.17;79.49
60089;BME280;45961;53.574;55.878;2022-10-16T07:29:18;101086.09;;;9.20;79.33
60089;BME280;45961;53.574;55.878;2022-10-16T07:30:20;101094.16;;;9.31;79.21
60089;BME280;45961;53.574;55.878;2022-10-16T07:31:21;101092.25;;;9.24;78.74
60089;BME280;45961;53.574;55.878;2022-10-16T07:32:23;101095.75;;;9.26;78.72
60089;BME280;45961;53.574;55.878;2022-10-16T07:33:26;101084.88;;;9.07;78.43
60089;BME280;45961;53.574;55.878;2022-10-16T07:34:30;101088.47;;;9.12;78.68
60089;BME280;45961;53.574;55.878;2022-10-16T07:35:34;101091.28;;;9.20;78.87
60089;BME280;45961;53.574;55.878;2022-10-16T07:36:35;101086.63;;;9.08;78.51
60089;BME280;45961;53.574;55.878;2022-10-16T07:37:36;101064.69;;;8.93;78.25
60089;BME280;45961;53.574;55.878;2022-10-16T07:38:37;101085.38;;;8.94;77.64
60089;BME280;45961;53.574;55.878;2022-10-16T07:39:38;101086.69;;;9.10;77.68
60089;BME280;45961;53.574;55.878;2022-10-16T07:40:39;101094.66;;;9.18;77.58
60089;BME280;45961;53.574;55.878;2022-10-16T07:41:40;101088.91;;;9.28;77.31
60089;BME280;45961;53.574;55.878;2022-10-16T07:42:41;101067.97;;;9.17;77.36
60089;BME280;45961;53.574;55.878;2022-10-16T07:43:46;101095.34;;;9.42;77.31
60089;BME280;45961;53.574;55.878;2022-10-16T07:44:48;101092.88;;;9.45;77.23
60089;BME280;45961;53.574;55.878;2022-10-16T07:45:49;101092.88;;;9.45;77.08
60089;BME280;45961;53.574;55.878;2022-10-16T07:46:50;101090.84;;;9.35;76.88
60089;BME280;45961;53.574;55.878;2022-10-16T07:47:51;101095.03;;;9.31;76.71
60089;BME280;45961;53.574;55.878;2022-10-16T07:48:53;101095.91;;;9.32;77.04
60089;BME280;45961;53.574;55.878;2022-10-16T07:49:57;101082.66;;;9.20;77.01
60089;BME280;45961;53.574;55.878;2022-10-16T07:51:03;101090.75;;;9.32;76.96
60089;BME280;45961;53.574;55.878;2022-10-16T07:52:06;101091.81;;;9.38;76.92
60089;BME280;45961;53.574;55.878;2022-10-16T07:53:07;101093.72;;;9.46;76.93
60089;BME280;45961;53.574;55.878;2022-10-16T07:54:09;101095.38;;;9.44;76.86
60089;BME280;45961;53.574;55.878;2022-10-16T07:55:29;101093.84;;;9.20;77.19
60089;BME280;45961;53.574;55.878;2022-10-16T07:56:31;101096.28;;;9.14;77.31
60089;BME280;45961;53.574;55.878;2022-10-16T07:57:33;101091.25;;;9.19;77.61
60089;BME280;45961;53.574;55.878;2022-10-16T07:58:34;101045.56;;;8.87;77.68
60089;BME280;45961;53.574;55.878;2022-10-16T07:59:37;101085.97;;;9.15;77.74
60089;BME280;45961;53.574;55.878;2022-10-16T08:00:38;101094.44;;;9.10;77.89
60089;BME280;45961;53.574;55.878;2022-10-16T08:01:59;101091.88;;;9.11;78.04
60089;BME280;45961;53.574;55.878;2022-10-16T08:03:03;101085.13;;;9.15;78.14
60089;BME280;45961;53.574;55.878;2022-10-16T08:04:04;101098.03;;;9.15;78.17
60089;BME280;45961;53.574;55.878;2022-10-16T08:05:06;101090.47;;;9.21;77.97
60089;BME280;45961;53.574;55.878;2022-10-16T08:06:07;101079.78;;;9.09;77.63
60089;BME280;45961;53.574;55.878;2022-10-16T08:07:08;101075.53;;;9.11;77.54
60089;BME280;45961;53.574;55.878;2022-10-16T08:08:16;101096.38;;;9.17;77.52
60089;BME280;45961;53.574;55.878;2022-10-16T08:09:17;101098.34;;;9.26;77.23
60089;BME280;45961;53.574;55.878;2022-10-16T08:10:20;101090.19;;;9.12;76.95
60089;BME280;45961;53.574;55.878;2022-10-16T08:11:21;101090.47;;;9.21;76.90
60089;BME280;45961;53.574;55.878;2022-10-16T08:12:22;101098.38;;;9.27;77.50
60089;BME280;45961;53.574;55.878;2022-10-16T08:13:23;101098.44;;;9.29;77.46
60089;BME280;45961;53.574;55.878;2022-10-16T08:14:24;101094.25;;;9.34;77.71
60089;BME280;45961;53.574;55.878;2022-10-16T08:15:25;101101.22;;;9.36;77.51
60089;BME280;45961;53.574;55.878;2022-10-16T08:16:26;101097.53;;;9.28;77.35
60089;BME280;45961;53.574;55.878;2022-10-16T08:17:27;101096.63;;;9.26;77.53
60089;BME280;45961;53.574;55.878;2022-10-16T08:18:28;101101.59;;;9.20;77.88
60089;BME280;45961;53.574;55.878;2022-10-16T08:19:32;101093.94;;;9.23;78.04
60089;BME280;45961;53.574;55.878;2022-10-16T08:20:38;101092.00;;;9.16;78.25
60089;BME280;45961;53.574;55.878;2022-10-16T08:21:39;101100.50;;;9.12;78.65
60089;BME280;45961;53.574;55.878;2022-10-16T08:22:40;101094.78;;;9.22;79.22
60089;BME280;45961;53.574;55.878;2022-10-16T08:23:42;101098.38;;;9.27;79.16
60089;BME280;45961;53.574;55.878;2022-10-16T08:24:48;101096.72;;;9.29;79.25
60089;BME280;45961;53.574;55.878;2022-10-16T08:25:49;101105.69;;;9.12;79.19
60089;BME280;45961;53.574;55.878;2022-10-16T08:26:56;101103.09;;;9.12;79.34
60089;BME280;45961;53.574;55.878;2022-10-16T08:27:56;101102.06;;;9.05;79.55
60089;BME280;45961;53.574;55.878;2022-10-16T08:28:58;101107.16;;;9.04;79.78
60089;BME280;45961;53.574;55.878;2022-10-16T08:30:00;101107.34;;;9.10;79.65
60089;BME280;45961;53.574;55.878;2022-10-16T08:31:13;101078.34;;;8.88;79.20
60089;BME280;45961;53.574;55.878;2022-10-16T08:32:24;101074.94;;;8.62;79.34
60089;BME280;45961;53.574;55.878;2022-10-16T08:33:25;101106.88;;;8.93;79.07
60089;BME280;45961;53.574;55.878;2022-10-16T08:34:26;101091.19;;;8.87;79.25
60089;BME280;45961;53.574;55.878;2022-10-16T08:35:27;101098.66;;;9.08;79.17
60089;BME280;45961;53.574;55.878;2022-10-16T08:36:28;101112.19;;;8.99;79.33
60089;BME280;45961;53.574;55.878;2022-10-16T08:37:32;101103.34;;;8.91;79.38
60089;BME280;45961;53.574;55.878;2022-10-16T08:38:33;101075.44;;;8.79;79.17
60089;BME280;45961;53.574;55.878;2022-10-16T08:39:35;101105.38;;;9.01;79.25
60089;BME280;45961;53.574;55.878;2022-10-16T08:40:36;101105.41;;;9.03;79.21
60089;BME280;45961;53.574;55.878;2022-10-16T08:43:25;101107.78;;;8.95;79.12
60089;BME280;45961;53.574;55.878;2022-10-16T08:47:17;101102.56;;;8.94;78.79
60089;BME280;45961;53.574;55.878;2022-10-16T08:48:47;101110.34;;;8.95;78.27
60089;BME280;45961;53.574;55.878;2022-10-16T08:49:58;101081.66;;;8.84;78.53
60089;BME280;45961;53.574;55.878;2022-10-16T08:51:02;101127.09;;;8.79;78.46
60089;BME280;45961;53.574;55.878;2022-10-16T08:52:04;101106.00;;;8.93;78.43
60089;BME280;45961;53.574;55.878;2022-10-16T08:53:20;101103.44;;;8.94;78.50
60089;BME280;45961;53.574;55.878;2022-10-16T08:55:52;101080.63;;;8.79;78.12
60089;BME280;45961;53.574;55.878;2022-10-16T08:56:55;101113.00;;;8.97;78.10
60089;BME280;45961;53.574;55.878;2022-10-16T08:58:00;101098.16;;;8.89;77.79
60089;BME280;45961;53.574;55.878;2022-10-16T08:59:03;101104.19;;;8.90;78.07
60089;BME280;45961;53.574;55.878;2022-10-16T09:00:13;101104.16;;;8.88;78.10
60089;BME280;45961;53.574;55.878;2022-10-16T09:01:17;101097.50;;;8.97;77.97
60089;BME280;45961;53.574;55.878;2022-10-16T09:02:22;101106.50;;;9.11;77.79
60089;BME280;45961;53.574;55.878;2022-10-16T09:06:00;101110.44;;;8.98;77.38
60089;BME280;45961;53.574;55.878;2022-10-16T09:07:14;101105.50;;;9.06;77.53
60089;BME280;45961;53.574;55.878;2022-10-16T09:13:26;101113.00;;;8.97;77.85
60089;BME280;45961;53.574;55.878;2022-10-16T09:14:40;101095.47;;;8.86;77.73
60089;BME280;45961;53.574;55.878;2022-10-16T09:18:58;101108.78;;;9.00;78.49
60089;BME280;45961;53.574;55.878;2022-10-16T09:21:23;101124.81;;;8.88;78.56
60089;BME280;45961;53.574;55.878;2022-10-16T09:22:27;101111.97;;;8.92;78.54
60089;BME280;45961;53.574;55.878;2022-10-16T09:23:35;101116.88;;;8.84;78.78
60089;BME280;45961;53.574;55.878;2022-10-16T09:24:36;101115.91;;;8.80;78.74
60089;BME280;45961;53.574;55.878;2022-10-16T09:25:39;101122.22;;;8.88;78.79
60089;BME280;45961;53.574;55.878;2022-10-16T09:26:42;101105.38;;;8.73;78.89
60089;BME280;45961;53.574;55.878;2022-10-16T09:27:47;101116.97;;;8.85;79.07
60089;BME280;45961;53.574;55.878;2022-10-16T09:28:48;101123.97;;;8.89;79.49
60089;BME280;45961;53.574;55.878;2022-10-16T09:29:49;101117.22;;;8.95;79.54
60089;BME280;45961;53.574;55.878;2022-10-16T09:30:50;101111.06;;;8.89;79.51
60089;BME280;45961;53.574;55.878;2022-10-16T09:32:14;101115.41;;;8.92;79.56
60089;BME280;45961;53.574;55.878;2022-10-16T09:33:19;101119.56;;;8.87;79.82
60089;BME280;45961;53.574;55.878;2022-10-16T09:34:32;101129.97;;;8.88;80.02
60089;BME280;45961;53.574;55.878;2022-10-16T09:35:41;101120.06;;;8.75;79.84
60089;BME280;45961;53.574;55.878;2022-10-16T09:36:44;101123.69;;;8.53;79.47
60089;BME280;45961;53.574;55.878;2022-10-16T09:37:50;101116.47;;;8.70;79.59
60089;BME280;45961;53.574;55.878;2022-10-16T09:39:03;101127.94;;;8.80;79.70
60089;BME280;45961;53.574;55.878;2022-10-16T09:40:05;101128.78;;;8.79;79.47
60089;BME280;45961;53.574;55.878;2022-10-16T09:41:21;101112.22;;;8.72;79.24
60089;BME280;45961;53.574;55.878;2022-10-16T09:42:27;101132.31;;;8.81;79.06
60089;BME280;45961;53.574;55.878;2022-10-16T09:43:40;101128.81;;;8.80;79.07
60089;BME280;45961;53.574;55.878;2022-10-16T09:44:41;101129.88;;;8.85;79.03
60089;BME280;45961;53.574;55.878;2022-10-16T09:45:43;101127.28;;;8.85;78.95
60089;BME280;45961;53.574;55.878;2022-10-16T09:46:46;101125.38;;;8.80;78.86
60089;BME280;45961;53.574;55.878;2022-10-16T09:47:47;101128.13;;;8.84;79.08
60089;BME280;45961;53.574;55.878;2022-10-16T09:48:50;101131.59;;;8.86;79.06
60089;BME280;45961;53.574;55.878;2022-10-16T09:51:36;101129.00;;;8.85;78.79
60089;BME280;45961;53.574;55.878;2022-10-16T09:52:37;101129.72;;;8.81;77.88
60089;BME280;45961;53.574;55.878;2022-10-16T09:53:45;101116.38;;;8.67;77.66
60089;BME280;45961;53.574;55.878;2022-10-16T09:55:53;101126.19;;;8.77;77.68
60089;BME280;45961;53.574;55.878;2022-10-16T09:57:04;101138.59;;;8.89;77.75
60089;BME280;45961;53.574;55.878;2022-10-16T09:58:13;101150.03;;;8.97;77.70
60089;BME280;45961;53.574;55.878;2022-10-16T09:59:14;101139.69;;;8.97;77.92
60089;BME280;45961;53.574;55.878;2022-10-16T10:00:17;101145.91;;;9.04;77.74
60089;BME280;45961;53.574;55.878;2022-10-16T10:01:19;101142.22;;;8.96;77.88
60089;BME280;45961;53.574;55.878;2022-10-16T10:02:34;101124.84;;;8.90;77.88
60089;BME280;45961;53.574;55.878;2022-10-16T10:03:39;101137.19;;;9.00;77.63
60089;BME280;45961;53.574;55.878;2022-10-16T10:04:50;101139.94;;;9.05;77.84
60089;BME280;45961;53.574;55.878;2022-10-16T10:05:52;101131.06;;;8.97;77.98
60089;BME280;45961;53.574;55.878;2022-10-16T10:06:55;101141.56;;;9.03;78.08
60089;BME280;45961;53.574;55.878;2022-10-16T10:08:03;101139.09;;;9.06;78.27
60089;BME280;45961;53.574;55.878;2022-10-16T10:09:38;101137.63;;;9.15;78.47
60089;BME280;45961;53.574;55.878;2022-10-16T10:10:42;101142.19;;;9.24;78.46
60089;BME280;45961;53.574;55.878;2022-10-16T10:11:45;101142.78;;;9.14;78.63
60089;BME280;45961;53.574;55.878;2022-10-16T10:12:47;101142.69;;;9.11;78.45
60089;BME280;45961;53.574;55.878;2022-10-16T10:13:48;101113.06;;;9.00;78.35
60089;BME280;45961;53.574;55.878;2022-10-16T10:14:53;101145.38;;;9.15;78.19
60089;BME280;45961;53.574;55.878;2022-10-16T10:15:55;101135.06;;;9.15;78.52
60089;BME280;45961;53.574;55.878;2022-10-16T10:17:14;101130.53;;;9.08;78.49
60089;BME280;45961;53.574;55.878;2022-10-16T10:18:19;101155.56;;;9.09;78.45
60089;BME280;45961;53.574;55.878;2022-10-16T10:19:23;101127.28;;;9.14;78.60
60089;BME280;45961;53.574;55.878;2022-10-16T10:20:30;101142.13;;;9.21;78.81
60089;BME280;45961;53.574;55.878;2022-10-16T10:21:38;101128.16;;;9.14;78.66
60089;BME280;45961;53.574;55.878;2022-10-16T10:22:44;101144.88;;;9.27;78.60
60089;BME280;45961;53.574;55.878;2022-10-16T10:23:55;101116.09;;;9.15;78.36
60089;BME280;45961;53.574;55.878;2022-10-16T10:26:18;101125.66;;;9.48;78.03
60089;BME280;45961;53.574;55.878;2022-10-16T10:27:26;101116.88;;;9.41;77.81
60089;BME280;45961;53.574;55.878;2022-10-16T10:30:37;101135.50;;;9.61;77.29
60089;BME280;45961;53.574;55.878;2022-10-16T10:31:46;101135.31;;;9.55;77.02
60089;BME280;45961;53.574;55.878;2022-10-16T10:36:44;101134.50;;;9.56;76.41
60089;BME280;45961;53.574;55.878;2022-10-16T10:43:52;101140.00;;;9.68;74.97
60089;BME280;45961;53.574;55.878;2022-10-16T10:45:56;101132.09;;;9.62;74.53
60089;BME280;45961;53.574;55.878;2022-10-16T10:47:05;101133.84;;;9.64;74.12
60089;BME280;45961;53.574;55.878;2022-10-16T11:02:06;101140.28;;;9.79;72.48
60089;BME280;45961;53.574;55.878;2022-10-16T11:03:31;101136.09;;;9.82;72.78
60089;BME280;45961;53.574;55.878;2022-10-16T11:05:38;101144.63;;;9.80;73.06
60089;BME280;45961;53.574;55.878;2022-10-16T11:06:24;101125.22;;;9.64;73.10
60089;BME280;45961;53.574;55.878;2022-10-16T11:07:32;101114.75;;;9.58;73.19